Estación Meteorológica Peña el Pijo (Robertgarden) [ 11/12/18 21:38:09 CET ]

Fecha Hora Presion(HPa) Temp (°C) Humedad % Rocio (°C) Viento ( m/s) Direccion Lluvia 1Hora(mm) Lluvia 24H(mm) LLuvia Total(mm)
2018-May-05 01:01:43 1006.700 10.4 68 4.8         205.12
2018-May-05 02:01:44 1006.800 10.3 69 4.9         205.12
2018-May-05 03:04:09 1006.300 10.2 71 5.2         205.12
2018-May-05 04:01:46 1005.900 9.9 72 5.1         205.12
2018-May-05 05:01:44 1006.000 9.9 74 5.5         205.12
2018-May-05 06:01:37 1006.300 9.7 75 5.3         205.12
2018-May-05 07:01:35 1006.000 9.6 77 5.7         205.12
2018-May-05 08:01:50 1006.600 9.3 79 5.8         205.12
2018-May-05 09:01:46 1006.600 11.4 81 8.3         205.12
2018-May-05 10:01:28 1006.800 17.4 57 8.8         205.12
2018-May-05 11:01:51 1006.700 20.1 44 7.4         205.12
2018-May-05 12:01:54 1006.900 21.5 39 6.9         205.12
2018-May-05 13:01:24 1006.900 22.3 33 5.2 0.6 SE     205.12
2018-May-05 14:01:25 1006.700 21.1 36 5.3         205.12
2018-May-05 15:02:02 1006.400 20.3 37 5.0         205.12
2018-May-05 16:01:53 1006.600 18.2 42 5.0         205.12
2018-May-05 17:01:53 1006.800 16.0 52 6.1         205.12
2018-May-05 18:01:32 1006.800 17.0 53 7.3         205.12
2018-May-05 19:01:42 1006.800 17.6 48 6.4         205.12
2018-May-05 20:01:39 1006.700 18.6 45 6.4         205.12
2018-May-05 21:01:44 1007.200 15.9 54 6.6 2.6 NNE     205.12
2018-May-05 22:01:45 1008.100 13.6 62 6.4         205.12
2018-May-05 23:02:05 1008.700 12.6 67 6.6         205.12

Temperatura Máxima:22°    Temperatura Mínima:
Presión Máxima:1008.700 Hpa    Presión Mínima:1005.900 Hpa


Volver